sensor_id;sensor_type;location;lat;lon;timestamp;P1;durP1;ratioP1;P2;durP2;ratioP2
13706;SDS011;6925;47.816;13.072;2022-07-01T00:00:31;1.35;;;1.25;;
13706;SDS011;6925;47.816;13.072;2022-07-01T00:02:58;1.27;;;1.17;;
13706;SDS011;6925;47.816;13.072;2022-07-01T00:05:26;2.40;;;1.40;;
13706;SDS011;6925;47.816;13.072;2022-07-01T00:07:55;1.52;;;1.33;;
13706;SDS011;6925;47.816;13.072;2022-07-01T00:10:22;1.35;;;1.25;;
13706;SDS011;6925;47.816;13.072;2022-07-01T00:12:50;1.65;;;1.10;;
13706;SDS011;6925;47.816;13.072;2022-07-01T00:15:17;5.32;;;1.45;;
13706;SDS011;6925;47.816;13.072;2022-07-01T00:17:44;2.00;;;1.20;;
13706;SDS011;6925;47.816;13.072;2022-07-01T00:20:11;1.67;;;1.10;;
13706;SDS011;6925;47.816;13.072;2022-07-01T00:22:40;1.00;;;0.75;;
13706;SDS011;6925;47.816;13.072;2022-07-01T00:25:09;3.22;;;1.02;;
13706;SDS011;6925;47.816;13.072;2022-07-01T00:27:37;1.80;;;1.17;;
13706;SDS011;6925;47.816;13.072;2022-07-01T00:30:06;2.45;;;1.00;;
13706;SDS011;6925;47.816;13.072;2022-07-01T00:32:34;1.60;;;1.10;;
13706;SDS011;6925;47.816;13.072;2022-07-01T00:35:02;1.20;;;0.95;;
13706;SDS011;6925;47.816;13.072;2022-07-01T00:37:29;2.17;;;0.95;;
13706;SDS011;6925;47.816;13.072;2022-07-01T00:39:57;1.17;;;0.80;;
13706;SDS011;6925;47.816;13.072;2022-07-01T00:42:26;2.45;;;1.40;;
13706;SDS011;6925;47.816;13.072;2022-07-01T00:44:53;2.13;;;1.13;;
13706;SDS011;6925;47.816;13.072;2022-07-01T00:47:20;1.77;;;1.35;;
13706;SDS011;6925;47.816;13.072;2022-07-01T00:49:49;2.42;;;1.33;;
13706;SDS011;6925;47.816;13.072;2022-07-01T00:52:17;1.42;;;1.33;;
13706;SDS011;6925;47.816;13.072;2022-07-01T00:54:44;2.03;;;1.20;;
13706;SDS011;6925;47.816;13.072;2022-07-01T00:57:12;2.88;;;1.30;;
13706;SDS011;6925;47.816;13.072;2022-07-01T00:59:41;1.50;;;1.10;;
13706;SDS011;6925;47.816;13.072;2022-07-01T01:02:09;1.70;;;1.23;;
13706;SDS011;6925;47.816;13.072;2022-07-01T01:04:36;1.67;;;1.42;;
13706;SDS011;6925;47.816;13.072;2022-07-01T01:07:03;2.92;;;1.50;;
13706;SDS011;6925;47.816;13.072;2022-07-01T01:09:31;1.52;;;1.20;;
13706;SDS011;6925;47.816;13.072;2022-07-01T01:11:59;1.52;;;1.20;;
13706;SDS011;6925;47.816;13.072;2022-07-01T01:14:28;2.00;;;1.40;;
13706;SDS011;6925;47.816;13.072;2022-07-01T01:16:57;2.95;;;1.20;;
13706;SDS011;6925;47.816;13.072;2022-07-01T01:19:24;4.85;;;1.83;;
13706;SDS011;6925;47.816;13.072;2022-07-01T01:21:53;5.70;;;1.85;;
13706;SDS011;6925;47.816;13.072;2022-07-01T01:24:22;1.98;;;1.60;;
13706;SDS011;6925;47.816;13.072;2022-07-01T01:26:49;2.10;;;1.90;;
13706;SDS011;6925;47.816;13.072;2022-07-01T01:29:17;2.30;;;1.90;;
13706;SDS011;6925;47.816;13.072;2022-07-01T01:31:44;2.20;;;2.00;;
13706;SDS011;6925;47.816;13.072;2022-07-01T01:34:13;3.45;;;2.22;;
13706;SDS011;6925;47.816;13.072;2022-07-01T01:36:40;3.03;;;1.75;;
13706;SDS011;6925;47.816;13.072;2022-07-01T01:39:09;2.40;;;2.15;;
13706;SDS011;6925;47.816;13.072;2022-07-01T01:41:37;2.20;;;1.98;;
13706;SDS011;6925;47.816;13.072;2022-07-01T01:44:04;2.25;;;2.05;;
13706;SDS011;6925;47.816;13.072;2022-07-01T01:46:32;2.88;;;2.28;;
13706;SDS011;6925;47.816;13.072;2022-07-01T01:49:00;3.05;;;2.67;;
13706;SDS011;6925;47.816;13.072;2022-07-01T01:51:28;2.35;;;2.13;;
13706;SDS011;6925;47.816;13.072;2022-07-01T01:53:55;3.17;;;2.08;;
13706;SDS011;6925;47.816;13.072;2022-07-01T01:56:25;3.97;;;2.38;;
13706;SDS011;6925;47.816;13.072;2022-07-01T01:58:53;2.63;;;2.42;;
13706;SDS011;6925;47.816;13.072;2022-07-01T02:01:20;4.43;;;2.70;;
13706;SDS011;6925;47.816;13.072;2022-07-01T02:03:48;3.40;;;2.90;;
13706;SDS011;6925;47.816;13.072;2022-07-01T02:06:17;3.33;;;2.47;;
13706;SDS011;6925;47.816;13.072;2022-07-01T02:08:45;3.95;;;2.78;;
13706;SDS011;6925;47.816;13.072;2022-07-01T02:11:13;4.65;;;3.08;;
13706;SDS011;6925;47.816;13.072;2022-07-01T02:13:42;3.08;;;2.78;;
13706;SDS011;6925;47.816;13.072;2022-07-01T02:16:10;3.95;;;2.75;;
13706;SDS011;6925;47.816;13.072;2022-07-01T02:18:37;2.92;;;2.67;;
13706;SDS011;6925;47.816;13.072;2022-07-01T02:21:04;2.80;;;2.58;;
13706;SDS011;6925;47.816;13.072;2022-07-01T02:23:31;3.40;;;2.80;;
13706;SDS011;6925;47.816;13.072;2022-07-01T02:25:59;3.67;;;3.38;;
13706;SDS011;6925;47.816;13.072;2022-07-01T02:28:26;5.18;;;3.47;;
13706;SDS011;6925;47.816;13.072;2022-07-01T02:30:55;4.00;;;3.50;;
13706;SDS011;6925;47.816;13.072;2022-07-01T02:33:23;3.25;;;2.95;;
13706;SDS011;6925;47.816;13.072;2022-07-01T02:35:50;3.58;;;2.90;;
13706;SDS011;6925;47.816;13.072;2022-07-01T02:38:18;4.20;;;2.70;;
13706;SDS011;6925;47.816;13.072;2022-07-01T02:40:46;4.28;;;3.28;;
13706;SDS011;6925;47.816;13.072;2022-07-01T02:43:13;3.28;;;3.00;;
13706;SDS011;6925;47.816;13.072;2022-07-01T02:45:41;3.88;;;2.92;;
13706;SDS011;6925;47.816;13.072;2022-07-01T02:48:10;2.70;;;2.50;;
13706;SDS011;6925;47.816;13.072;2022-07-01T02:50:38;3.22;;;2.70;;
13706;SDS011;6925;47.816;13.072;2022-07-01T02:53:06;4.13;;;2.80;;
13706;SDS011;6925;47.816;13.072;2022-07-01T02:55:35;2.90;;;2.22;;
13706;SDS011;6925;47.816;13.072;2022-07-01T02:58:03;3.38;;;2.22;;
13706;SDS011;6925;47.816;13.072;2022-07-01T03:00:30;2.28;;;2.08;;
13706;SDS011;6925;47.816;13.072;2022-07-01T03:02:57;2.33;;;2.10;;
13706;SDS011;6925;47.816;13.072;2022-07-01T03:05:27;3.17;;;2.38;;
13706;SDS011;6925;47.816;13.072;2022-07-01T03:07:54;2.97;;;2.70;;
13706;SDS011;6925;47.816;13.072;2022-07-01T03:10:22;2.47;;;2.28;;
13706;SDS011;6925;47.816;13.072;2022-07-01T03:12:49;3.28;;;2.53;;
13706;SDS011;6925;47.816;13.072;2022-07-01T03:15:16;2.55;;;2.35;;
13706;SDS011;6925;47.816;13.072;2022-07-01T03:17:44;1.90;;;1.80;;
13706;SDS011;6925;47.816;13.072;2022-07-01T03:20:13;2.40;;;2.00;;
13706;SDS011;6925;47.816;13.072;2022-07-01T03:22:44;4.05;;;2.40;;
13706;SDS011;6925;47.816;13.072;2022-07-01T03:25:12;3.17;;;2.35;;
13706;SDS011;6925;47.816;13.072;2022-07-01T03:27:40;3.47;;;2.50;;
13706;SDS011;6925;47.816;13.072;2022-07-01T03:30:10;4.78;;;1.95;;
13706;SDS011;6925;47.816;13.072;2022-07-01T03:32:39;3.58;;;2.03;;
13706;SDS011;6925;47.816;13.072;2022-07-01T03:35:06;2.22;;;1.88;;
13706;SDS011;6925;47.816;13.072;2022-07-01T03:37:49;2.22;;;2.03;;
13706;SDS011;6925;47.816;13.072;2022-07-01T03:40:16;3.58;;;2.08;;
13706;SDS011;6925;47.816;13.072;2022-07-01T03:42:44;3.42;;;1.90;;
13706;SDS011;6925;47.816;13.072;2022-07-01T03:45:11;2.25;;;1.98;;
13706;SDS011;6925;47.816;13.072;2022-07-01T03:47:44;2.25;;;1.33;;
13706;SDS011;6925;47.816;13.072;2022-07-01T03:50:12;1.95;;;1.85;;
13706;SDS011;6925;47.816;13.072;2022-07-01T03:52:39;2.05;;;1.38;;
13706;SDS011;6925;47.816;13.072;2022-07-01T03:55:09;1.85;;;1.63;;
13706;SDS011;6925;47.816;13.072;2022-07-01T03:57:35;1.48;;;1.38;;
13706;SDS011;6925;47.816;13.072;2022-07-01T04:00:03;4.15;;;1.30;;
13706;SDS011;6925;47.816;13.072;2022-07-01T04:02:33;1.48;;;1.23;;
13706;SDS011;6925;47.816;13.072;2022-07-01T04:05:00;2.50;;;1.48;;
13706;SDS011;6925;47.816;13.072;2022-07-01T04:07:28;1.35;;;1.25;;
13706;SDS011;6925;47.816;13.072;2022-07-01T04:09:55;1.98;;;1.30;;
13706;SDS011;6925;47.816;13.072;2022-07-01T04:12:24;1.30;;;1.20;;
13706;SDS011;6925;47.816;13.072;2022-07-01T04:14:51;1.50;;;1.38;;
13706;SDS011;6925;47.816;13.072;2022-07-01T04:17:18;1.65;;;1.30;;
13706;SDS011;6925;47.816;13.072;2022-07-01T04:19:46;2.10;;;1.20;;
13706;SDS011;6925;47.816;13.072;2022-07-01T04:22:13;2.17;;;1.30;;
13706;SDS011;6925;47.816;13.072;2022-07-01T04:24:58;1.40;;;1.30;;
13706;SDS011;6925;47.816;13.072;2022-07-01T04:27:27;1.30;;;1.20;;
13706;SDS011;6925;47.816;13.072;2022-07-01T04:29:54;2.40;;;1.40;;
13706;SDS011;6925;47.816;13.072;2022-07-01T04:32:22;1.85;;;1.48;;
13706;SDS011;6925;47.816;13.072;2022-07-01T04:34:49;1.40;;;1.30;;
13706;SDS011;6925;47.816;13.072;2022-07-01T04:37:17;1.40;;;1.27;;
13706;SDS011;6925;47.816;13.072;2022-07-01T04:39:44;3.15;;;1.10;;
13706;SDS011;6925;47.816;13.072;2022-07-01T04:42:12;2.10;;;1.83;;
13706;SDS011;6925;47.816;13.072;2022-07-01T04:44:41;1.25;;;1.15;;
13706;SDS011;6925;47.816;13.072;2022-07-01T04:47:09;1.30;;;1.20;;
13706;SDS011;6925;47.816;13.072;2022-07-01T04:49:36;1.58;;;1.13;;
13706;SDS011;6925;47.816;13.072;2022-07-01T04:52:03;2.67;;;1.10;;
13706;SDS011;6925;47.816;13.072;2022-07-01T04:54:31;3.92;;;1.05;;
13706;SDS011;6925;47.816;13.072;2022-07-01T04:57:01;1.23;;;1.13;;
13706;SDS011;6925;47.816;13.072;2022-07-01T04:59:28;2.08;;;0.70;;
13706;SDS011;6925;47.816;13.072;2022-07-01T05:01:57;1.25;;;1.10;;
13706;SDS011;6925;47.816;13.072;2022-07-01T05:04:26;0.85;;;0.85;;
13706;SDS011;6925;47.816;13.072;2022-07-01T05:06:55;2.05;;;1.10;;
13706;SDS011;6925;47.816;13.072;2022-07-01T05:09:22;1.98;;;1.15;;
13706;SDS011;6925;47.816;13.072;2022-07-01T05:11:49;1.00;;;1.00;;
13706;SDS011;6925;47.816;13.072;2022-07-01T05:14:17;2.75;;;1.65;;
13706;SDS011;6925;47.816;13.072;2022-07-01T05:16:44;1.00;;;0.95;;
13706;SDS011;6925;47.816;13.072;2022-07-01T05:19:13;0.80;;;0.80;;
13706;SDS011;6925;47.816;13.072;2022-07-01T05:21:58;0.70;;;0.70;;
13706;SDS011;6925;47.816;13.072;2022-07-01T05:24:27;0.80;;;0.80;;
13706;SDS011;6925;47.816;13.072;2022-07-01T05:26:56;1.15;;;0.80;;
13706;SDS011;6925;47.816;13.072;2022-07-01T05:29:23;1.77;;;0.80;;
13706;SDS011;6925;47.816;13.072;2022-07-01T05:31:51;1.05;;;0.90;;
13706;SDS011;6925;47.816;13.072;2022-07-01T05:34:20;0.82;;;0.82;;
13706;SDS011;6925;47.816;13.072;2022-07-01T05:36:47;1.52;;;0.80;;
13706;SDS011;6925;47.816;13.072;2022-07-01T05:39:15;1.33;;;0.70;;
13706;SDS011;6925;47.816;13.072;2022-07-01T05:41:42;1.05;;;0.95;;
13706;SDS011;6925;47.816;13.072;2022-07-01T05:44:11;3.17;;;1.02;;
13706;SDS011;6925;47.816;13.072;2022-07-01T05:46:39;1.65;;;1.08;;
13706;SDS011;6925;47.816;13.072;2022-07-01T05:49:06;1.45;;;0.70;;
13706;SDS011;6925;47.816;13.072;2022-07-01T05:51:35;1.88;;;0.82;;
13706;SDS011;6925;47.816;13.072;2022-07-01T05:54:03;0.52;;;0.52;;
13706;SDS011;6925;47.816;13.072;2022-07-01T05:56:30;0.80;;;0.77;;
13706;SDS011;6925;47.816;13.072;2022-07-01T05:58:58;1.42;;;0.95;;
13706;SDS011;6925;47.816;13.072;2022-07-01T06:01:25;1.77;;;1.00;;
13706;SDS011;6925;47.816;13.072;2022-07-01T06:03:53;2.00;;;1.15;;
13706;SDS011;6925;47.816;13.072;2022-07-01T06:06:20;0.93;;;0.80;;
13706;SDS011;6925;47.816;13.072;2022-07-01T06:08:49;1.02;;;1.00;;
13706;SDS011;6925;47.816;13.072;2022-07-01T06:11:17;2.05;;;1.50;;
13706;SDS011;6925;47.816;13.072;2022-07-01T06:13:45;2.05;;;1.45;;
13706;SDS011;6925;47.816;13.072;2022-07-01T06:16:12;2.47;;;2.28;;
13706;SDS011;6925;47.816;13.072;2022-07-01T06:18:39;2.20;;;2.00;;
13706;SDS011;6925;47.816;13.072;2022-07-01T06:21:07;3.90;;;1.98;;
13706;SDS011;6925;47.816;13.072;2022-07-01T06:23:34;2.95;;;2.00;;
13706;SDS011;6925;47.816;13.072;2022-07-01T06:26:04;2.53;;;1.98;;
13706;SDS011;6925;47.816;13.072;2022-07-01T06:28:31;2.53;;;2.33;;
13706;SDS011;6925;47.816;13.072;2022-07-01T06:30:58;2.25;;;2.00;;
13706;SDS011;6925;47.816;13.072;2022-07-01T06:33:26;2.22;;;2.03;;
13706;SDS011;6925;47.816;13.072;2022-07-01T06:35:56;2.83;;;2.25;;
13706;SDS011;6925;47.816;13.072;2022-07-01T06:38:23;1.90;;;1.73;;
13706;SDS011;6925;47.816;13.072;2022-07-01T06:40:51;1.95;;;1.85;;
13706;SDS011;6925;47.816;13.072;2022-07-01T06:43:40;2.65;;;1.70;;
13706;SDS011;6925;47.816;13.072;2022-07-01T06:46:08;2.28;;;1.95;;
13706;SDS011;6925;47.816;13.072;2022-07-01T06:48:36;1.45;;;1.35;;
13706;SDS011;6925;47.816;13.072;2022-07-01T06:51:04;2.75;;;1.73;;
13706;SDS011;6925;47.816;13.072;2022-07-01T06:53:31;1.60;;;1.50;;
13706;SDS011;6925;47.816;13.072;2022-07-01T06:55:58;1.95;;;1.30;;
13706;SDS011;6925;47.816;13.072;2022-07-01T06:58:26;1.60;;;1.50;;
13706;SDS011;6925;47.816;13.072;2022-07-01T07:00:55;1.40;;;1.30;;
13706;SDS011;6925;47.816;13.072;2022-07-01T07:03:22;1.40;;;1.30;;
13706;SDS011;6925;47.816;13.072;2022-07-01T07:05:49;1.08;;;1.00;;
13706;SDS011;6925;47.816;13.072;2022-07-01T07:08:18;1.02;;;0.77;;
13706;SDS011;6925;47.816;13.072;2022-07-01T07:10:45;1.30;;;0.90;;
13706;SDS011;6925;47.816;13.072;2022-07-01T07:13:12;1.35;;;0.98;;
13706;SDS011;6925;47.816;13.072;2022-07-01T07:15:40;0.73;;;0.70;;
13706;SDS011;6925;47.816;13.072;2022-07-01T07:18:09;0.98;;;0.70;;
13706;SDS011;6925;47.816;13.072;2022-07-01T07:20:37;0.88;;;0.73;;
13706;SDS011;6925;47.816;13.072;2022-07-01T07:23:04;0.60;;;0.60;;
13706;SDS011;6925;47.816;13.072;2022-07-01T07:25:31;0.85;;;0.60;;
13706;SDS011;6925;47.816;13.072;2022-07-01T07:28:01;0.60;;;0.60;;
13706;SDS011;6925;47.816;13.072;2022-07-01T07:30:28;0.70;;;0.70;;
13706;SDS011;6925;47.816;13.072;2022-07-01T07:32:56;0.85;;;0.68;;
13706;SDS011;6925;47.816;13.072;2022-07-01T07:35:25;0.70;;;0.70;;
13706;SDS011;6925;47.816;13.072;2022-07-01T07:37:52;0.50;;;0.50;;
13706;SDS011;6925;47.816;13.072;2022-07-01T07:40:20;1.38;;;0.60;;
13706;SDS011;6925;47.816;13.072;2022-07-01T07:42:47;1.17;;;0.90;;
13706;SDS011;6925;47.816;13.072;2022-07-01T07:45:15;0.50;;;0.50;;
13706;SDS011;6925;47.816;13.072;2022-07-01T07:47:44;0.60;;;0.60;;
13706;SDS011;6925;47.816;13.072;2022-07-01T07:50:12;0.73;;;0.73;;
13706;SDS011;6925;47.816;13.072;2022-07-01T07:52:41;1.02;;;0.63;;
13706;SDS011;6925;47.816;13.072;2022-07-01T07:55:09;0.75;;;0.60;;
13706;SDS011;6925;47.816;13.072;2022-07-01T07:57:37;0.80;;;0.60;;
13706;SDS011;6925;47.816;13.072;2022-07-01T08:00:05;0.70;;;0.70;;
13706;SDS011;6925;47.816;13.072;2022-07-01T08:02:34;1.75;;;0.70;;
13706;SDS011;6925;47.816;13.072;2022-07-01T08:05:02;2.05;;;0.60;;
13706;SDS011;6925;47.816;13.072;2022-07-01T08:07:29;0.80;;;0.80;;
13706;SDS011;6925;47.816;13.072;2022-07-01T08:10:03;1.08;;;0.63;;
13706;SDS011;6925;47.816;13.072;2022-07-01T08:12:30;0.45;;;0.45;;
13706;SDS011;6925;47.816;13.072;2022-07-01T08:15:06;0.60;;;0.60;;
13706;SDS011;6925;47.816;13.072;2022-07-01T08:20:57;0.80;;;0.70;;
13706;SDS011;6925;47.816;13.072;2022-07-01T08:23:25;0.60;;;0.50;;
13706;SDS011;6925;47.816;13.072;2022-07-01T08:25:54;0.98;;;0.73;;
13706;SDS011;6925;47.816;13.072;2022-07-01T08:28:22;0.70;;;0.60;;
13706;SDS011;6925;47.816;13.072;2022-07-01T08:30:49;1.40;;;0.50;;
13706;SDS011;6925;47.816;13.072;2022-07-01T08:33:16;0.40;;;0.40;;
13706;SDS011;6925;47.816;13.072;2022-07-01T08:35:46;0.63;;;0.60;;
13706;SDS011;6925;47.816;13.072;2022-07-01T08:38:14;0.65;;;0.65;;
13706;SDS011;6925;47.816;13.072;2022-07-01T08:40:41;0.95;;;0.73;;
13706;SDS011;6925;47.816;13.072;2022-07-01T08:43:12;1.08;;;0.70;;
13706;SDS011;6925;47.816;13.072;2022-07-01T08:45:40;0.80;;;0.80;;
13706;SDS011;6925;47.816;13.072;2022-07-01T08:48:11;1.10;;;0.65;;
13706;SDS011;6925;47.816;13.072;2022-07-01T08:50:39;0.70;;;0.63;;
13706;SDS011;6925;47.816;13.072;2022-07-01T08:53:07;0.70;;;0.70;;
13706;SDS011;6925;47.816;13.072;2022-07-01T08:55:37;0.60;;;0.60;;
13706;SDS011;6925;47.816;13.072;2022-07-01T08:58:19;0.68;;;0.68;;
13706;SDS011;6925;47.816;13.072;2022-07-01T09:00:47;0.60;;;0.60;;
13706;SDS011;6925;47.816;13.072;2022-07-01T09:03:15;0.60;;;0.60;;
13706;SDS011;6925;47.816;13.072;2022-07-01T09:05:47;1.02;;;0.60;;
13706;SDS011;6925;47.816;13.072;2022-07-01T09:08:16;0.85;;;0.70;;
13706;SDS011;6925;47.816;13.072;2022-07-01T09:10:44;1.02;;;1.00;;
13706;SDS011;6925;47.816;13.072;2022-07-01T09:13:13;1.33;;;0.80;;
13706;SDS011;6925;47.816;13.072;2022-07-01T09:15:42;0.70;;;0.70;;
13706;SDS011;6925;47.816;13.072;2022-07-01T09:18:10;0.70;;;0.50;;
13706;SDS011;6925;47.816;13.072;2022-07-01T09:20:39;0.82;;;0.82;;
13706;SDS011;6925;47.816;13.072;2022-07-01T09:23:13;1.08;;;0.70;;
13706;SDS011;6925;47.816;13.072;2022-07-01T09:25:42;0.85;;;0.77;;
13706;SDS011;6925;47.816;13.072;2022-07-01T09:28:14;1.05;;;0.80;;
13706;SDS011;6925;47.816;13.072;2022-07-01T09:30:45;1.35;;;0.80;;
13706;SDS011;6925;47.816;13.072;2022-07-01T09:33:15;1.08;;;0.55;;
13706;SDS011;6925;47.816;13.072;2022-07-01T09:35:44;1.00;;;0.90;;
13706;SDS011;6925;47.816;13.072;2022-07-01T09:38:15;0.85;;;0.80;;
13706;SDS011;6925;47.816;13.072;2022-07-01T09:40:47;0.88;;;0.82;;
13706;SDS011;6925;47.816;13.072;2022-07-01T09:43:16;1.30;;;0.80;;
13706;SDS011;6925;47.816;13.072;2022-07-01T09:45:49;1.67;;;0.80;;
13706;SDS011;6925;47.816;13.072;2022-07-01T09:48:24;0.70;;;0.50;;
13706;SDS011;6925;47.816;13.072;2022-07-01T09:50:53;0.63;;;0.63;;
13706;SDS011;6925;47.816;13.072;2022-07-01T09:53:21;0.75;;;0.75;;
13706;SDS011;6925;47.816;13.072;2022-07-01T09:55:48;1.33;;;1.13;;
13706;SDS011;6925;47.816;13.072;2022-07-01T09:58:16;1.83;;;1.17;;
13706;SDS011;6925;47.816;13.072;2022-07-01T10:00:44;0.70;;;0.70;;
13706;SDS011;6925;47.816;13.072;2022-07-01T10:03:13;0.93;;;0.90;;
13706;SDS011;6925;47.816;13.072;2022-07-01T10:05:42;0.85;;;0.82;;
13706;SDS011;6925;47.816;13.072;2022-07-01T10:08:18;1.23;;;0.70;;
13706;SDS011;6925;47.816;13.072;2022-07-01T10:11:01;0.80;;;0.80;;
13706;SDS011;6925;47.816;13.072;2022-07-01T10:13:43;0.80;;;0.70;;
13706;SDS011;6925;47.816;13.072;2022-07-01T10:16:12;0.82;;;0.68;;
13706;SDS011;6925;47.816;13.072;2022-07-01T10:18:42;0.60;;;0.55;;
13706;SDS011;6925;47.816;13.072;2022-07-01T10:21:09;1.60;;;0.80;;
13706;SDS011;6925;47.816;13.072;2022-07-01T10:23:56;0.80;;;0.80;;
13706;SDS011;6925;47.816;13.072;2022-07-01T10:30:12;1.55;;;1.08;;
13706;SDS011;6925;47.816;13.072;2022-07-01T10:32:46;0.80;;;0.80;;
13706;SDS011;6925;47.816;13.072;2022-07-01T10:35:16;0.95;;;0.95;;
13706;SDS011;6925;47.816;13.072;2022-07-01T10:37:57;0.90;;;0.90;;
13706;SDS011;6925;47.816;13.072;2022-07-01T10:40:39;1.02;;;0.93;;
13706;SDS011;6925;47.816;13.072;2022-07-01T10:43:10;1.65;;;1.33;;
13706;SDS011;6925;47.816;13.072;2022-07-01T10:45:41;0.98;;;0.98;;
13706;SDS011;6925;47.816;13.072;2022-07-01T10:48:18;1.30;;;1.20;;
13706;SDS011;6925;47.816;13.072;2022-07-01T10:50:49;1.48;;;1.38;;
13706;SDS011;6925;47.816;13.072;2022-07-01T10:53:17;1.38;;;1.30;;
13706;SDS011;6925;47.816;13.072;2022-07-01T10:55:47;1.92;;;1.83;;
13706;SDS011;6925;47.816;13.072;2022-07-01T10:58:16;1.60;;;1.50;;
13706;SDS011;6925;47.816;13.072;2022-07-01T11:00:47;1.60;;;1.50;;
13706;SDS011;6925;47.816;13.072;2022-07-01T11:03:19;1.92;;;1.83;;
13706;SDS011;6925;47.816;13.072;2022-07-01T11:05:51;1.75;;;1.58;;
13706;SDS011;6925;47.816;13.072;2022-07-01T11:08:20;1.80;;;1.70;;
13706;SDS011;6925;47.816;13.072;2022-07-01T11:10:53;3.10;;;2.17;;
13706;SDS011;6925;47.816;13.072;2022-07-01T11:13:32;2.60;;;2.40;;
13706;SDS011;6925;47.816;13.072;2022-07-01T11:16:01;1.95;;;1.55;;
13706;SDS011;6925;47.816;13.072;2022-07-01T11:18:30;0.70;;;0.70;;
13706;SDS011;6925;47.816;13.072;2022-07-01T11:21:06;0.80;;;0.50;;
13706;SDS011;6925;47.816;13.072;2022-07-01T11:23:36;0.40;;;0.40;;
13706;SDS011;6925;47.816;13.072;2022-07-01T11:26:03;2.40;;;0.40;;
13706;SDS011;6925;47.816;13.072;2022-07-01T11:31:05;0.38;;;0.30;;
13706;SDS011;6925;47.816;13.072;2022-07-01T11:33:32;1.95;;;0.30;;
13706;SDS011;6925;47.816;13.072;2022-07-01T11:36:03;0.40;;;0.28;;
13706;SDS011;6925;47.816;13.072;2022-07-01T11:45:42;0.57;;;0.40;;
13706;SDS011;6925;47.816;13.072;2022-07-01T11:51:41;0.52;;;0.30;;
13706;SDS011;6925;47.816;13.072;2022-07-01T11:57:53;0.30;;;0.20;;
13706;SDS011;6925;47.816;13.072;2022-07-01T12:00:22;0.98;;;0.30;;
13706;SDS011;6925;47.816;13.072;2022-07-01T12:03:03;1.52;;;0.30;;
13706;SDS011;6925;47.816;13.072;2022-07-01T12:05:30;1.08;;;0.20;;
13706;SDS011;6925;47.816;13.072;2022-07-01T12:08:02;0.45;;;0.30;;
13706;SDS011;6925;47.816;13.072;2022-07-01T12:10:30;0.55;;;0.30;;
13706;SDS011;6925;47.816;13.072;2022-07-01T12:12:58;0.38;;;0.30;;
13706;SDS011;6925;47.816;13.072;2022-07-01T12:15:25;0.30;;;0.30;;
13706;SDS011;6925;47.816;13.072;2022-07-01T12:18:05;0.45;;;0.30;;
13706;SDS011;6925;47.816;13.072;2022-07-01T12:20:33;0.40;;;0.40;;
13706;SDS011;6925;47.816;13.072;2022-07-01T12:23:10;0.40;;;0.30;;
13706;SDS011;6925;47.816;13.072;2022-07-01T12:25:38;0.40;;;0.40;;
13706;SDS011;6925;47.816;13.072;2022-07-01T12:28:06;1.23;;;0.47;;
13706;SDS011;6925;47.816;13.072;2022-07-01T12:30:33;0.40;;;0.40;;
13706;SDS011;6925;47.816;13.072;2022-07-01T12:36:16;0.40;;;0.40;;
13706;SDS011;6925;47.816;13.072;2022-07-01T12:38:47;2.38;;;0.60;;
13706;SDS011;6925;47.816;13.072;2022-07-01T12:41:30;0.28;;;0.20;;
13706;SDS011;6925;47.816;13.072;2022-07-01T12:44:00;0.60;;;0.60;;
13706;SDS011;6925;47.816;13.072;2022-07-01T12:49:03;0.40;;;0.40;;
13706;SDS011;6925;47.816;13.072;2022-07-01T12:51:34;0.25;;;0.20;;
13706;SDS011;6925;47.816;13.072;2022-07-01T12:56:57;0.40;;;0.40;;
13706;SDS011;6925;47.816;13.072;2022-07-01T12:59:27;0.40;;;0.40;;
13706;SDS011;6925;47.816;13.072;2022-07-01T13:01:56;0.40;;;0.30;;
13706;SDS011;6925;47.816;13.072;2022-07-01T13:04:26;0.40;;;0.30;;
13706;SDS011;6925;47.816;13.072;2022-07-01T13:06:59;0.30;;;0.30;;
13706;SDS011;6925;47.816;13.072;2022-07-01T13:09:26;1.85;;;0.40;;
13706;SDS011;6925;47.816;13.072;2022-07-01T13:11:57;0.50;;;0.40;;
13706;SDS011;6925;47.816;13.072;2022-07-01T13:14:26;0.35;;;0.35;;
13706;SDS011;6925;47.816;13.072;2022-07-01T13:16:57;0.30;;;0.30;;
13706;SDS011;6925;47.816;13.072;2022-07-01T13:23:25;0.82;;;0.40;;
13706;SDS011;6925;47.816;13.072;2022-07-01T13:25:53;0.40;;;0.40;;
13706;SDS011;6925;47.816;13.072;2022-07-01T13:28:20;0.65;;;0.38;;
13706;SDS011;6925;47.816;13.072;2022-07-01T13:30:47;1.02;;;0.40;;
13706;SDS011;6925;47.816;13.072;2022-07-01T13:33:15;0.45;;;0.45;;
13706;SDS011;6925;47.816;13.072;2022-07-01T13:35:42;0.65;;;0.50;;
13706;SDS011;6925;47.816;13.072;2022-07-01T13:38:10;1.23;;;0.50;;
13706;SDS011;6925;47.816;13.072;2022-07-01T13:40:44;0.50;;;0.40;;
13706;SDS011;6925;47.816;13.072;2022-07-01T13:43:11;0.40;;;0.40;;
13706;SDS011;6925;47.816;13.072;2022-07-01T13:45:41;0.68;;;0.40;;
13706;SDS011;6925;47.816;13.072;2022-07-01T13:48:11;1.00;;;0.70;;
13706;SDS011;6925;47.816;13.072;2022-07-01T13:50:40;0.68;;;0.40;;
13706;SDS011;6925;47.816;13.072;2022-07-01T13:53:18;1.40;;;0.60;;
13706;SDS011;6925;47.816;13.072;2022-07-01T13:55:47;0.60;;;0.60;;
13706;SDS011;6925;47.816;13.072;2022-07-01T13:58:15;1.17;;;0.98;;
13706;SDS011;6925;47.816;13.072;2022-07-01T14:00:42;1.50;;;0.80;;
13706;SDS011;6925;47.816;13.072;2022-07-01T14:03:13;0.85;;;0.70;;
13706;SDS011;6925;47.816;13.072;2022-07-01T14:05:58;0.50;;;0.50;;
13706;SDS011;6925;47.816;13.072;2022-07-01T14:08:33;1.23;;;0.55;;
13706;SDS011;6925;47.816;13.072;2022-07-01T14:13:47;0.90;;;0.80;;
13706;SDS011;6925;47.816;13.072;2022-07-01T14:16:14;1.40;;;1.00;;
13706;SDS011;6925;47.816;13.072;2022-07-01T14:18:42;1.60;;;0.77;;
13706;SDS011;6925;47.816;13.072;2022-07-01T14:21:12;1.23;;;0.40;;
13706;SDS011;6925;47.816;13.072;2022-07-01T14:23:40;0.93;;;0.60;;
13706;SDS011;6925;47.816;13.072;2022-07-01T14:26:07;3.22;;;0.68;;
13706;SDS011;6925;47.816;13.072;2022-07-01T14:28:37;1.65;;;0.68;;
13706;SDS011;6925;47.816;13.072;2022-07-01T14:31:05;1.25;;;0.50;;
13706;SDS011;6925;47.816;13.072;2022-07-01T14:33:41;0.50;;;0.50;;
13706;SDS011;6925;47.816;13.072;2022-07-01T14:38:54;0.40;;;0.40;;
13706;SDS011;6925;47.816;13.072;2022-07-01T14:41:21;0.60;;;0.40;;
13706;SDS011;6925;47.816;13.072;2022-07-01T14:43:50;1.55;;;0.50;;
13706;SDS011;6925;47.816;13.072;2022-07-01T14:46:18;1.50;;;0.47;;
13706;SDS011;6925;47.816;13.072;2022-07-01T14:48:45;1.75;;;0.70;;
13706;SDS011;6925;47.816;13.072;2022-07-01T14:51:12;0.82;;;0.50;;
13706;SDS011;6925;47.816;13.072;2022-07-01T14:53:40;0.50;;;0.50;;
13706;SDS011;6925;47.816;13.072;2022-07-01T14:59:35;0.80;;;0.80;;
13706;SDS011;6925;47.816;13.072;2022-07-01T15:02:02;1.92;;;0.70;;
13706;SDS011;6925;47.816;13.072;2022-07-01T15:04:30;0.90;;;0.73;;
13706;SDS011;6925;47.816;13.072;2022-07-01T15:07:00;1.90;;;0.63;;
13706;SDS011;6925;47.816;13.072;2022-07-01T15:09:27;2.03;;;1.15;;
13706;SDS011;6925;47.816;13.072;2022-07-01T15:11:55;0.88;;;0.70;;
13706;SDS011;6925;47.816;13.072;2022-07-01T15:14:22;0.95;;;0.73;;
13706;SDS011;6925;47.816;13.072;2022-07-01T15:16:51;0.70;;;0.70;;
13706;SDS011;6925;47.816;13.072;2022-07-01T15:19:19;1.08;;;0.73;;
13706;SDS011;6925;47.816;13.072;2022-07-01T15:25:08;0.75;;;0.75;;
13706;SDS011;6925;47.816;13.072;2022-07-01T15:27:36;1.00;;;0.80;;
13706;SDS011;6925;47.816;13.072;2022-07-01T15:30:05;0.85;;;0.77;;
13706;SDS011;6925;47.816;13.072;2022-07-01T15:32:35;2.97;;;0.90;;
13706;SDS011;6925;47.816;13.072;2022-07-01T15:35:03;0.80;;;0.77;;
13706;SDS011;6925;47.816;13.072;2022-07-01T15:37:39;0.77;;;0.70;;
13706;SDS011;6925;47.816;13.072;2022-07-01T15:40:08;0.57;;;0.57;;
13706;SDS011;6925;47.816;13.072;2022-07-01T15:42:35;0.93;;;0.68;;
13706;SDS011;6925;47.816;13.072;2022-07-01T15:45:04;1.73;;;0.60;;
13706;SDS011;6925;47.816;13.072;2022-07-01T15:47:32;0.88;;;0.57;;